sensor_id;sensor_type;location;lat;lon;timestamp;P1;durP1;ratioP1;P2;durP2;ratioP2
10725;SDS011;5414;59.782;16.378;2022-09-09T00:00:23;2.17;;;1.50;;
10725;SDS011;5414;59.782;16.378;2022-09-09T00:03:04;1.80;;;1.43;;
10725;SDS011;5414;59.782;16.378;2022-09-09T00:06:20;2.13;;;1.30;;
10725;SDS011;5414;59.782;16.378;2022-09-09T00:08:21;1.60;;;1.50;;
10725;SDS011;5414;59.782;16.378;2022-09-09T00:10:51;1.40;;;1.30;;
10725;SDS011;5414;59.782;16.378;2022-09-09T00:21:16;1.70;;;1.50;;
10725;SDS011;5414;59.782;16.378;2022-09-09T00:23:44;1.60;;;1.50;;
10725;SDS011;5414;59.782;16.378;2022-09-09T00:29:09;1.60;;;1.50;;
10725;SDS011;5414;59.782;16.378;2022-09-09T00:31:38;1.70;;;1.60;;
10725;SDS011;5414;59.782;16.378;2022-09-09T00:34:09;2.33;;;1.60;;
10725;SDS011;5414;59.782;16.378;2022-09-09T00:36:38;1.50;;;1.40;;
10725;SDS011;5414;59.782;16.378;2022-09-09T00:39:04;1.60;;;1.50;;
10725;SDS011;5414;59.782;16.378;2022-09-09T00:43:57;1.60;;;1.50;;
10725;SDS011;5414;59.782;16.378;2022-09-09T00:49:21;1.53;;;1.43;;
10725;SDS011;5414;59.782;16.378;2022-09-09T00:59:56;1.50;;;1.37;;
10725;SDS011;5414;59.782;16.378;2022-09-09T01:04:49;1.80;;;1.50;;
10725;SDS011;5414;59.782;16.378;2022-09-09T01:07:16;1.70;;;1.60;;
10725;SDS011;5414;59.782;16.378;2022-09-09T01:14:43;1.93;;;1.63;;
10725;SDS011;5414;59.782;16.378;2022-09-09T01:27:46;2.60;;;1.90;;
10725;SDS011;5414;59.782;16.378;2022-09-09T01:30:14;1.87;;;1.77;;
10725;SDS011;5414;59.782;16.378;2022-09-09T01:32:42;4.70;;;1.70;;
10725;SDS011;5414;59.782;16.378;2022-09-09T01:35:15;1.90;;;1.80;;
10725;SDS011;5414;59.782;16.378;2022-09-09T01:37:44;2.07;;;1.87;;
10725;SDS011;5414;59.782;16.378;2022-09-09T01:40:11;1.73;;;1.63;;
10725;SDS011;5414;59.782;16.378;2022-09-09T01:42:37;1.87;;;1.77;;
10725;SDS011;5414;59.782;16.378;2022-09-09T01:45:03;1.80;;;1.70;;
10725;SDS011;5414;59.782;16.378;2022-09-09T01:47:29;1.70;;;1.60;;
10725;SDS011;5414;59.782;16.378;2022-09-09T01:49:55;2.27;;;1.67;;
10725;SDS011;5414;59.782;16.378;2022-09-09T01:52:23;3.73;;;1.70;;
10725;SDS011;5414;59.782;16.378;2022-09-09T01:54:49;1.87;;;1.77;;
10725;SDS011;5414;59.782;16.378;2022-09-09T02:05:14;2.20;;;2.00;;
10725;SDS011;5414;59.782;16.378;2022-09-09T02:07:46;1.80;;;1.70;;
10725;SDS011;5414;59.782;16.378;2022-09-09T02:13:04;1.53;;;1.43;;
10725;SDS011;5414;59.782;16.378;2022-09-09T02:15:34;1.57;;;1.47;;
10725;SDS011;5414;59.782;16.378;2022-09-09T02:18:01;1.63;;;1.53;;
10725;SDS011;5414;59.782;16.378;2022-09-09T02:20:31;1.80;;;1.70;;
10725;SDS011;5414;59.782;16.378;2022-09-09T02:22:58;1.80;;;1.70;;
10725;SDS011;5414;59.782;16.378;2022-09-09T02:25:25;1.70;;;1.60;;
10725;SDS011;5414;59.782;16.378;2022-09-09T02:27:52;2.50;;;1.83;;
10725;SDS011;5414;59.782;16.378;2022-09-09T02:30:18;2.40;;;1.60;;
10725;SDS011;5414;59.782;16.378;2022-09-09T02:32:45;1.77;;;1.63;;
10725;SDS011;5414;59.782;16.378;2022-09-09T02:35:13;1.50;;;1.40;;
10725;SDS011;5414;59.782;16.378;2022-09-09T02:37:40;1.53;;;1.43;;
10725;SDS011;5414;59.782;16.378;2022-09-09T02:40:07;1.70;;;1.60;;
10725;SDS011;5414;59.782;16.378;2022-09-09T02:42:38;1.70;;;1.60;;
10725;SDS011;5414;59.782;16.378;2022-09-09T02:45:05;1.60;;;1.50;;
10725;SDS011;5414;59.782;16.378;2022-09-09T02:50:13;1.53;;;1.43;;
10725;SDS011;5414;59.782;16.378;2022-09-09T02:52:51;1.57;;;1.47;;
10725;SDS011;5414;59.782;16.378;2022-09-09T02:55:38;1.73;;;1.63;;
10725;SDS011;5414;59.782;16.378;2022-09-09T02:58:05;1.93;;;1.70;;
10725;SDS011;5414;59.782;16.378;2022-09-09T03:00:32;1.50;;;1.40;;
10725;SDS011;5414;59.782;16.378;2022-09-09T03:03:01;1.80;;;1.60;;
10725;SDS011;5414;59.782;16.378;2022-09-09T03:05:27;1.70;;;1.60;;
10725;SDS011;5414;59.782;16.378;2022-09-09T03:07:53;2.50;;;1.50;;
10725;SDS011;5414;59.782;16.378;2022-09-09T03:10:19;1.47;;;1.37;;
10725;SDS011;5414;59.782;16.378;2022-09-09T03:12:45;1.60;;;1.50;;
10725;SDS011;5414;59.782;16.378;2022-09-09T03:15:11;1.40;;;1.30;;
10725;SDS011;5414;59.782;16.378;2022-09-09T03:17:38;2.90;;;1.40;;
10725;SDS011;5414;59.782;16.378;2022-09-09T03:20:04;1.50;;;1.40;;
10725;SDS011;5414;59.782;16.378;2022-09-09T03:22:30;2.10;;;1.40;;
10725;SDS011;5414;59.782;16.378;2022-09-09T03:24:56;1.50;;;1.40;;
10725;SDS011;5414;59.782;16.378;2022-09-09T03:27:22;1.40;;;1.30;;
10725;SDS011;5414;59.782;16.378;2022-09-09T03:29:48;1.40;;;1.30;;
10725;SDS011;5414;59.782;16.378;2022-09-09T03:32:17;1.60;;;1.50;;
10725;SDS011;5414;59.782;16.378;2022-09-09T03:34:44;1.50;;;1.40;;
10725;SDS011;5414;59.782;16.378;2022-09-09T03:37:12;1.50;;;1.40;;
10725;SDS011;5414;59.782;16.378;2022-09-09T03:39:38;1.37;;;1.27;;
10725;SDS011;5414;59.782;16.378;2022-09-09T03:42:04;1.60;;;1.50;;
10725;SDS011;5414;59.782;16.378;2022-09-09T03:44:30;1.30;;;1.20;;
10725;SDS011;5414;59.782;16.378;2022-09-09T03:46:56;1.47;;;1.37;;
10725;SDS011;5414;59.782;16.378;2022-09-09T03:49:25;1.93;;;1.30;;
10725;SDS011;5414;59.782;16.378;2022-09-09T03:51:53;2.07;;;1.53;;
10725;SDS011;5414;59.782;16.378;2022-09-09T03:54:19;1.97;;;1.30;;
10725;SDS011;5414;59.782;16.378;2022-09-09T03:56:45;1.37;;;1.20;;
10725;SDS011;5414;59.782;16.378;2022-09-09T03:59:11;1.50;;;1.33;;
10725;SDS011;5414;59.782;16.378;2022-09-09T04:01:39;2.30;;;1.40;;
10725;SDS011;5414;59.782;16.378;2022-09-09T04:04:05;1.50;;;1.40;;
10725;SDS011;5414;59.782;16.378;2022-09-09T04:06:31;1.70;;;1.60;;
10725;SDS011;5414;59.782;16.378;2022-09-09T04:08:58;1.87;;;1.43;;
10725;SDS011;5414;59.782;16.378;2022-09-09T04:11:27;1.40;;;1.23;;
10725;SDS011;5414;59.782;16.378;2022-09-09T04:13:53;1.97;;;1.60;;
10725;SDS011;5414;59.782;16.378;2022-09-09T04:16:19;1.70;;;1.60;;
10725;SDS011;5414;59.782;16.378;2022-09-09T04:18:45;1.50;;;1.40;;
10725;SDS011;5414;59.782;16.378;2022-09-09T04:21:11;1.50;;;1.40;;
10725;SDS011;5414;59.782;16.378;2022-09-09T04:23:38;1.43;;;1.33;;
10725;SDS011;5414;59.782;16.378;2022-09-09T04:26:04;1.40;;;1.30;;
10725;SDS011;5414;59.782;16.378;2022-09-09T04:28:31;1.37;;;1.27;;
10725;SDS011;5414;59.782;16.378;2022-09-09T04:31:03;1.57;;;1.40;;
10725;SDS011;5414;59.782;16.378;2022-09-09T04:33:29;1.77;;;1.30;;
10725;SDS011;5414;59.782;16.378;2022-09-09T04:35:56;1.37;;;1.27;;
10725;SDS011;5414;59.782;16.378;2022-09-09T04:38:22;1.50;;;1.40;;
10725;SDS011;5414;59.782;16.378;2022-09-09T04:40:49;1.37;;;1.27;;
10725;SDS011;5414;59.782;16.378;2022-09-09T04:43:16;1.50;;;1.40;;
10725;SDS011;5414;59.782;16.378;2022-09-09T04:45:46;1.60;;;1.40;;
10725;SDS011;5414;59.782;16.378;2022-09-09T04:48:12;1.43;;;1.33;;
10725;SDS011;5414;59.782;16.378;2022-09-09T04:50:38;1.43;;;1.30;;
10725;SDS011;5414;59.782;16.378;2022-09-09T04:53:05;1.10;;;1.03;;
10725;SDS011;5414;59.782;16.378;2022-09-09T04:55:32;1.20;;;1.10;;
10725;SDS011;5414;59.782;16.378;2022-09-09T04:58:06;1.90;;;1.23;;
10725;SDS011;5414;59.782;16.378;2022-09-09T05:00:33;1.50;;;1.40;;
10725;SDS011;5414;59.782;16.378;2022-09-09T05:03:03;1.93;;;1.17;;
10725;SDS011;5414;59.782;16.378;2022-09-09T05:05:30;1.77;;;1.60;;
10725;SDS011;5414;59.782;16.378;2022-09-09T05:08:00;1.10;;;1.10;;
10725;SDS011;5414;59.782;16.378;2022-09-09T05:10:27;1.80;;;1.50;;
10725;SDS011;5414;59.782;16.378;2022-09-09T05:12:53;1.93;;;1.40;;
10725;SDS011;5414;59.782;16.378;2022-09-09T05:15:19;1.87;;;1.30;;
10725;SDS011;5414;59.782;16.378;2022-09-09T05:17:46;1.13;;;1.13;;
10725;SDS011;5414;59.782;16.378;2022-09-09T05:20:13;1.30;;;1.20;;
10725;SDS011;5414;59.782;16.378;2022-09-09T05:22:39;1.40;;;1.27;;
10725;SDS011;5414;59.782;16.378;2022-09-09T05:25:05;2.33;;;1.40;;
10725;SDS011;5414;59.782;16.378;2022-09-09T05:27:33;1.33;;;1.10;;
10725;SDS011;5414;59.782;16.378;2022-09-09T05:29:59;2.23;;;1.30;;
10725;SDS011;5414;59.782;16.378;2022-09-09T05:32:25;1.27;;;1.10;;
10725;SDS011;5414;59.782;16.378;2022-09-09T05:34:51;1.73;;;1.20;;
10725;SDS011;5414;59.782;16.378;2022-09-09T05:37:17;1.10;;;1.00;;
10725;SDS011;5414;59.782;16.378;2022-09-09T05:39:43;1.77;;;1.10;;
10725;SDS011;5414;59.782;16.378;2022-09-09T05:42:09;2.43;;;1.13;;
10725;SDS011;5414;59.782;16.378;2022-09-09T05:44:35;2.60;;;1.37;;
10725;SDS011;5414;59.782;16.378;2022-09-09T05:47:02;1.07;;;1.07;;
10725;SDS011;5414;59.782;16.378;2022-09-09T05:49:28;1.30;;;1.20;;
10725;SDS011;5414;59.782;16.378;2022-09-09T05:51:54;0.97;;;0.90;;
10725;SDS011;5414;59.782;16.378;2022-09-09T05:54:20;1.73;;;1.10;;
10725;SDS011;5414;59.782;16.378;2022-09-09T05:56:46;1.67;;;1.17;;
10725;SDS011;5414;59.782;16.378;2022-09-09T05:59:17;1.10;;;1.00;;
10725;SDS011;5414;59.782;16.378;2022-09-09T06:01:43;2.23;;;1.10;;
10725;SDS011;5414;59.782;16.378;2022-09-09T06:04:10;1.20;;;1.10;;
10725;SDS011;5414;59.782;16.378;2022-09-09T06:06:37;1.30;;;1.20;;
10725;SDS011;5414;59.782;16.378;2022-09-09T06:09:05;1.30;;;1.20;;
10725;SDS011;5414;59.782;16.378;2022-09-09T06:11:34;2.03;;;1.10;;
10725;SDS011;5414;59.782;16.378;2022-09-09T06:14:01;1.30;;;1.20;;
10725;SDS011;5414;59.782;16.378;2022-09-09T06:16:28;2.13;;;1.10;;
10725;SDS011;5414;59.782;16.378;2022-09-09T06:18:54;1.47;;;1.00;;
10725;SDS011;5414;59.782;16.378;2022-09-09T06:21:28;2.07;;;1.40;;
10725;SDS011;5414;59.782;16.378;2022-09-09T06:23:55;1.63;;;1.17;;
10725;SDS011;5414;59.782;16.378;2022-09-09T06:26:25;0.90;;;0.90;;
10725;SDS011;5414;59.782;16.378;2022-09-09T06:28:51;1.80;;;1.10;;
10725;SDS011;5414;59.782;16.378;2022-09-09T06:31:19;1.40;;;1.03;;
10725;SDS011;5414;59.782;16.378;2022-09-09T06:33:49;1.73;;;1.00;;
10725;SDS011;5414;59.782;16.378;2022-09-09T06:36:37;1.80;;;1.20;;
10725;SDS011;5414;59.782;16.378;2022-09-09T06:39:02;1.10;;;1.00;;
10725;SDS011;5414;59.782;16.378;2022-09-09T06:41:29;1.23;;;0.97;;
10725;SDS011;5414;59.782;16.378;2022-09-09T06:43:56;1.00;;;0.90;;
10725;SDS011;5414;59.782;16.378;2022-09-09T06:46:23;1.90;;;1.03;;
10725;SDS011;5414;59.782;16.378;2022-09-09T06:48:53;1.00;;;0.90;;
10725;SDS011;5414;59.782;16.378;2022-09-09T06:51:24;1.93;;;1.10;;
10725;SDS011;5414;59.782;16.378;2022-09-09T06:53:51;1.37;;;1.20;;
10725;SDS011;5414;59.782;16.378;2022-09-09T06:56:21;1.60;;;1.03;;
10725;SDS011;5414;59.782;16.378;2022-09-09T06:58:48;1.53;;;1.00;;
10725;SDS011;5414;59.782;16.378;2022-09-09T07:01:18;1.30;;;1.20;;
10725;SDS011;5414;59.782;16.378;2022-09-09T07:03:46;1.20;;;1.10;;
10725;SDS011;5414;59.782;16.378;2022-09-09T07:06:16;1.37;;;1.20;;
10725;SDS011;5414;59.782;16.378;2022-09-09T07:08:43;1.27;;;1.17;;
10725;SDS011;5414;59.782;16.378;2022-09-09T07:11:09;1.20;;;1.10;;
10725;SDS011;5414;59.782;16.378;2022-09-09T07:13:36;1.33;;;1.17;;
10725;SDS011;5414;59.782;16.378;2022-09-09T07:16:09;1.10;;;1.00;;
10725;SDS011;5414;59.782;16.378;2022-09-09T07:18:36;1.47;;;0.90;;
10725;SDS011;5414;59.782;16.378;2022-09-09T07:21:03;1.50;;;1.07;;
10725;SDS011;5414;59.782;16.378;2022-09-09T07:23:31;1.27;;;1.00;;
10725;SDS011;5414;59.782;16.378;2022-09-09T07:25:58;2.13;;;1.17;;
10725;SDS011;5414;59.782;16.378;2022-09-09T07:28:24;0.90;;;0.90;;
10725;SDS011;5414;59.782;16.378;2022-09-09T07:30:55;1.20;;;0.97;;
10725;SDS011;5414;59.782;16.378;2022-09-09T07:33:22;5.00;;;1.10;;
10725;SDS011;5414;59.782;16.378;2022-09-09T07:35:48;1.13;;;0.90;;
10725;SDS011;5414;59.782;16.378;2022-09-09T07:38:14;1.03;;;0.97;;
10725;SDS011;5414;59.782;16.378;2022-09-09T07:40:40;2.73;;;1.10;;
10725;SDS011;5414;59.782;16.378;2022-09-09T07:43:06;1.30;;;1.20;;
10725;SDS011;5414;59.782;16.378;2022-09-09T07:45:33;0.83;;;0.83;;
10725;SDS011;5414;59.782;16.378;2022-09-09T07:48:00;1.33;;;0.97;;
10725;SDS011;5414;59.782;16.378;2022-09-09T07:50:26;1.20;;;0.93;;
10725;SDS011;5414;59.782;16.378;2022-09-09T07:52:52;2.07;;;1.10;;
10725;SDS011;5414;59.782;16.378;2022-09-09T07:55:22;0.80;;;0.80;;
10725;SDS011;5414;59.782;16.378;2022-09-09T07:57:50;1.10;;;1.00;;
10725;SDS011;5414;59.782;16.378;2022-09-09T08:00:16;2.23;;;0.80;;
10725;SDS011;5414;59.782;16.378;2022-09-09T08:02:43;1.90;;;0.93;;
10725;SDS011;5414;59.782;16.378;2022-09-09T08:05:11;0.80;;;0.80;;
10725;SDS011;5414;59.782;16.378;2022-09-09T08:07:37;1.50;;;0.90;;
10725;SDS011;5414;59.782;16.378;2022-09-09T08:10:05;1.03;;;0.87;;
10725;SDS011;5414;59.782;16.378;2022-09-09T08:12:31;1.23;;;0.90;;
10725;SDS011;5414;59.782;16.378;2022-09-09T08:14:57;1.53;;;0.87;;
10725;SDS011;5414;59.782;16.378;2022-09-09T08:17:23;1.30;;;0.60;;
10725;SDS011;5414;59.782;16.378;2022-09-09T08:19:49;0.60;;;0.60;;
10725;SDS011;5414;59.782;16.378;2022-09-09T08:22:15;2.83;;;1.10;;
10725;SDS011;5414;59.782;16.378;2022-09-09T08:24:41;0.70;;;0.50;;
10725;SDS011;5414;59.782;16.378;2022-09-09T08:27:08;1.27;;;0.70;;
10725;SDS011;5414;59.782;16.378;2022-09-09T08:29:34;1.73;;;0.70;;
10725;SDS011;5414;59.782;16.378;2022-09-09T08:32:02;2.17;;;0.90;;
